Rosyth, United Kingdom
Current Conditions -  °F | °C
As of 2:20 PM on Thursday 27 Nov 2014 (Local Time) from EGPH Reporting Station
Drizzle Drizzle  
Wind Chill: 44°   Ceiling: 400
Heat Index: 46°   Visibility: 2.8mi
Dew Point: 46°   Wind: 6mph
Humidity: 100%   Direction: 70°ENE
Pressure: 29.59"   Gusts: NA
Location:  56.04°N, 3.44°W
Report Text: EGPH 271420Z 07005KT 4500 -DZ BR BKN004 BKN014 08/08 Q1002
Loading
Personal Weather Stations






























Interactive Weather Map New forecast layout! Learn more

10-Day Weather Forecast

Advertisements
Track Severe Weather on mobile